createdAt,value
2019-05-12T00:00:20.637Z,1011.02
2019-05-12T00:01:20.669Z,1011.01
2019-05-12T00:02:20.632Z,1011.06
2019-05-12T00:03:20.642Z,1011.09
2019-05-12T00:04:20.622Z,1011.07
2019-05-12T00:05:20.604Z,1011.05
2019-05-12T00:06:20.612Z,1011.03
2019-05-12T00:07:20.596Z,1011.06
2019-05-12T00:08:20.599Z,1011.06
2019-05-12T00:09:20.587Z,1011.06
2019-05-12T00:10:20.581Z,1011.12
2019-05-12T00:11:20.577Z,1011.13
2019-05-12T00:12:20.563Z,1011.16
2019-05-12T00:13:20.557Z,1011.13
2019-05-12T00:14:20.555Z,1011.16
2019-05-12T00:15:20.557Z,1011.19
2019-05-12T00:16:20.539Z,1011.16
2019-05-12T00:17:20.538Z,1011.21
2019-05-12T00:18:20.600Z,1011.19
2019-05-12T00:19:20.523Z,1011.20
2019-05-12T00:20:20.515Z,1011.16
2019-05-12T00:21:20.512Z,1011.20
2019-05-12T00:22:20.512Z,1011.19
2019-05-12T00:23:27.529Z,1011.20
2019-05-12T00:24:20.491Z,1011.23
2019-05-12T00:25:20.488Z,1011.22
2019-05-12T00:26:20.478Z,1011.26
2019-05-12T00:27:20.505Z,1011.26
2019-05-12T00:28:20.460Z,1011.25
2019-05-12T00:29:20.472Z,1011.26
2019-05-12T00:30:20.453Z,1011.30
2019-05-12T00:31:20.452Z,1011.28
2019-05-12T00:32:20.434Z,1011.27
2019-05-12T00:33:20.438Z,1011.30
2019-05-12T00:34:20.429Z,1011.31
2019-05-12T00:35:20.420Z,1011.27
2019-05-12T00:36:20.413Z,1011.27
2019-05-12T00:37:20.423Z,1011.26
2019-05-12T00:38:20.397Z,1011.28
2019-05-12T00:39:20.398Z,1011.29
2019-05-12T00:40:20.402Z,1011.28
2019-05-12T00:41:20.379Z,1011.29
2019-05-12T00:42:20.378Z,1011.30
2019-05-12T00:43:20.366Z,1011.30
2019-05-12T00:44:20.396Z,1011.31
2019-05-12T00:45:20.361Z,1011.30
2019-05-12T00:46:20.350Z,1011.32
2019-05-12T00:47:20.353Z,1011.32
2019-05-12T00:48:20.335Z,1011.32
2019-05-12T00:49:20.333Z,1011.31
2019-05-12T00:50:20.337Z,1011.33
2019-05-12T00:51:20.339Z,1011.36
2019-05-12T00:52:20.397Z,1011.37
2019-05-12T00:53:20.307Z,1011.39
2019-05-12T00:54:20.304Z,1011.40
2019-05-12T00:55:20.293Z,1011.36
2019-05-12T00:56:20.287Z,1011.41
2019-05-12T00:57:20.285Z,1011.47
2019-05-12T00:58:20.277Z,1011.47
2019-05-12T00:59:20.268Z,1011.52
2019-05-12T01:00:20.268Z,1011.49
2019-05-12T01:01:20.256Z,1011.54
2019-05-12T01:02:20.251Z,1011.55
2019-05-12T01:03:20.237Z,1011.56
2019-05-12T01:04:20.237Z,1011.56
2019-05-12T01:05:20.228Z,1011.55
2019-05-12T01:06:20.218Z,1011.61
2019-05-12T01:07:20.226Z,1011.62
2019-05-12T01:08:20.205Z,1011.60
2019-05-12T01:09:20.203Z,1011.62
2019-05-12T01:10:20.201Z,1011.64
2019-05-12T01:11:20.184Z,1011.62
2019-05-12T01:12:20.188Z,1011.61
2019-05-12T01:13:20.180Z,1011.60
2019-05-12T01:14:20.174Z,1011.64
2019-05-12T01:15:20.166Z,1011.60
2019-05-12T01:16:20.164Z,1011.61
2019-05-12T01:17:20.161Z,1011.60
2019-05-12T01:18:20.155Z,1011.61
2019-05-12T01:19:20.159Z,1011.63
2019-05-12T01:20:20.128Z,1011.68
2019-05-12T01:21:20.123Z,1011.66
2019-05-12T01:22:20.124Z,1011.71
2019-05-12T01:23:23.331Z,1011.71
2019-05-12T01:24:20.139Z,1011.74
2019-05-12T01:25:20.105Z,1011.72
2019-05-12T01:26:20.088Z,1011.75
2019-05-12T01:27:20.093Z,1011.77
2019-05-12T01:28:20.084Z,1011.75
2019-05-12T01:29:20.077Z,1011.80
2019-05-12T01:30:20.063Z,1011.79
2019-05-12T01:31:20.053Z,1011.82
2019-05-12T01:32:20.061Z,1011.84
2019-05-12T01:33:20.042Z,1011.84
2019-05-12T01:34:20.039Z,1011.80
2019-05-12T01:35:20.031Z,1011.85
2019-05-12T01:36:20.035Z,1011.86
2019-05-12T01:37:20.013Z,1011.93
2019-05-12T01:38:20.018Z,1011.91
2019-05-12T01:39:20.001Z,1011.90
2019-05-12T01:40:19.996Z,1011.90
2019-05-12T01:41:19.991Z,1011.93
2019-05-12T01:42:19.985Z,1011.91
2019-05-12T01:43:21.200Z,1011.92
2019-05-12T01:44:19.973Z,1012.01
2019-05-12T01:45:19.965Z,1012.01
2019-05-12T01:46:19.958Z,1011.98
2019-05-12T01:47:19.947Z,1012.01
2019-05-12T01:48:19.948Z,1012.01
2019-05-12T01:49:19.939Z,1012.04
2019-05-12T01:50:19.925Z,1012.02
2019-05-12T01:51:19.927Z,1012.08
2019-05-12T01:52:19.912Z,1012.10
2019-05-12T01:53:19.906Z,1012.10
2019-05-12T01:54:19.905Z,1012.11
2019-05-12T01:55:19.902Z,1012.22
2019-05-12T01:56:19.892Z,1012.17
2019-05-12T01:57:19.877Z,1012.25
2019-05-12T01:58:19.875Z,1012.24
2019-05-12T01:59:19.912Z,1012.28
2019-05-12T02:00:19.873Z,1012.25
2019-05-12T02:01:19.852Z,1012.30
2019-05-12T02:02:19.846Z,1012.33
2019-05-12T02:03:19.843Z,1012.36
2019-05-12T02:04:19.836Z,1012.35
2019-05-12T02:05:19.834Z,1012.38
2019-05-12T02:06:19.819Z,1012.38
2019-05-12T02:07:19.822Z,1012.41
2019-05-12T02:08:19.812Z,1012.39
2019-05-12T02:09:19.804Z,1012.41
2019-05-12T02:10:19.793Z,1012.41
2019-05-12T02:11:19.820Z,1012.41
2019-05-12T02:12:19.786Z,1012.44
2019-05-12T02:13:19.784Z,1012.46
2019-05-12T02:14:19.768Z,1012.47
2019-05-12T02:15:19.761Z,1012.46
2019-05-12T02:16:19.757Z,1012.51
2019-05-12T02:17:19.749Z,1012.53
2019-05-12T02:18:19.747Z,1012.52
2019-05-12T02:19:19.734Z,1012.51
2019-05-12T02:20:19.734Z,1012.48
2019-05-12T02:21:19.731Z,1012.53
2019-05-12T02:22:19.718Z,1012.57
2019-05-12T02:23:19.713Z,1012.56
2019-05-12T02:24:26.531Z,1012.55
2019-05-12T02:25:19.696Z,1012.60
2019-05-12T02:26:19.694Z,1012.63
2019-05-12T02:27:19.685Z,1012.62
2019-05-12T02:28:19.674Z,1012.62
2019-05-12T02:29:19.672Z,1012.67
2019-05-12T02:30:20.475Z,1012.68
2019-05-12T02:31:20.635Z,1012.71
2019-05-12T02:32:19.650Z,1012.70
2019-05-12T02:33:19.639Z,1012.72
2019-05-12T02:34:19.655Z,1012.75
2019-05-12T02:35:19.632Z,1012.78
2019-05-12T02:36:19.628Z,1012.77
2019-05-12T02:37:19.613Z,1012.80
2019-05-12T02:38:19.603Z,1012.80
2019-05-12T02:39:19.609Z,1012.78
2019-05-12T02:40:19.599Z,1012.78
2019-05-12T02:41:19.582Z,1012.82
2019-05-12T02:42:19.578Z,1012.81
2019-05-12T02:43:19.571Z,1012.86
2019-05-12T02:44:19.564Z,1012.87
2019-05-12T02:45:19.565Z,1012.90
2019-05-12T02:46:19.554Z,1012.90
2019-05-12T02:47:19.584Z,1012.96
2019-05-12T02:48:19.537Z,1012.97
2019-05-12T02:49:19.541Z,1013.01
2019-05-12T02:50:19.528Z,1013.07
2019-05-12T02:51:19.525Z,1013.08
2019-05-12T02:52:19.513Z,1013.06
2019-05-12T02:53:19.513Z,1013.07
2019-05-12T02:54:19.524Z,1013.05
2019-05-12T02:55:19.491Z,1013.07
2019-05-12T02:56:19.488Z,1013.08
2019-05-12T02:57:19.510Z,1013.07
2019-05-12T02:58:19.471Z,1013.10
2019-05-12T02:59:19.463Z,1013.11
2019-05-12T03:00:19.457Z,1013.16
2019-05-12T03:01:19.463Z,1013.22
2019-05-12T03:02:19.436Z,1013.20
2019-05-12T03:03:19.438Z,1013.23
2019-05-12T03:04:19.425Z,1013.23
2019-05-12T03:05:19.425Z,1013.25
2019-05-12T03:06:19.417Z,1013.27
2019-05-12T03:07:19.404Z,1013.27
2019-05-12T03:08:19.399Z,1013.26
2019-05-12T03:09:19.391Z,1013.26
2019-05-12T03:10:19.385Z,1013.28
2019-05-12T03:11:19.376Z,1013.28
2019-05-12T03:12:19.370Z,1013.31
2019-05-12T03:13:19.382Z,1013.30
2019-05-12T03:14:19.364Z,1013.28
2019-05-12T03:15:19.364Z,1013.33
2019-05-12T03:16:19.343Z,1013.37
2019-05-12T03:17:19.341Z,1013.39
2019-05-12T03:18:19.333Z,1013.37
2019-05-12T03:19:19.330Z,1013.38
2019-05-12T03:20:19.325Z,1013.41
2019-05-12T03:21:19.310Z,1013.40
2019-05-12T03:22:19.306Z,1013.44
2019-05-12T03:23:19.766Z,1013.50
2019-05-12T03:24:19.291Z,1013.54
2019-05-12T03:25:24.671Z,1013.53
2019-05-12T03:26:19.323Z,1013.56
2019-05-12T03:27:19.276Z,1013.57
2019-05-12T03:28:19.315Z,1013.63
2019-05-12T03:29:19.255Z,1013.64
2019-05-12T03:30:19.943Z,1013.65
2019-05-12T03:31:24.983Z,1013.67
2019-05-12T03:32:19.231Z,1013.73
2019-05-12T03:33:20.459Z,1013.74
2019-05-12T03:34:20.711Z,1013.75
2019-05-12T03:35:19.241Z,1013.75
2019-05-12T03:36:19.208Z,1013.77
2019-05-12T03:37:19.204Z,1013.79
2019-05-12T03:38:19.196Z,1013.76
2019-05-12T03:39:19.181Z,1013.80
2019-05-12T03:40:19.170Z,1013.83
2019-05-12T03:41:19.160Z,1013.84
2019-05-12T03:42:19.164Z,1013.84
2019-05-12T03:43:19.155Z,1013.85
2019-05-12T03:44:19.145Z,1013.87
2019-05-12T03:45:19.140Z,1013.90
2019-05-12T03:46:19.134Z,1013.87
2019-05-12T03:47:19.120Z,1013.92
2019-05-12T03:48:19.116Z,1013.93
2019-05-12T03:49:19.123Z,1013.95
2019-05-12T03:50:19.101Z,1013.96
2019-05-12T03:51:19.106Z,1013.98
2019-05-12T03:52:19.094Z,1014.00
2019-05-12T03:53:19.088Z,1014.00
2019-05-12T03:54:19.067Z,1014.03
2019-05-12T03:55:34.499Z,1014.04
2019-05-12T03:56:19.056Z,1014.02
2019-05-12T03:57:19.074Z,1014.06
2019-05-12T03:58:19.038Z,1014.13
2019-05-12T03:59:19.038Z,1014.14
2019-05-12T04:00:19.038Z,1014.16
2019-05-12T04:01:19.025Z,1014.19
2019-05-12T04:02:19.015Z,1014.23
2019-05-12T04:03:19.002Z,1014.23
2019-05-12T04:04:19.007Z,1014.29
2019-05-12T04:05:18.992Z,1014.33
2019-05-12T04:06:18.990Z,1014.32
2019-05-12T04:07:18.970Z,1014.35
2019-05-12T04:08:18.972Z,1014.30
2019-05-12T04:24:05.494Z,1014.65
2019-05-12T04:25:06.063Z,1014.64
2019-05-12T04:26:10.923Z,1014.68
2019-05-12T04:27:05.388Z,1014.67
2019-05-12T04:28:04.734Z,1014.68
2019-05-12T04:29:05.109Z,1014.71
2019-05-12T04:30:05.487Z,1014.77
2019-05-12T04:31:05.471Z,1014.75
2019-05-12T04:32:05.148Z,1014.78
2019-05-12T04:33:04.883Z,1014.79
2019-05-12T04:34:05.159Z,1014.85
2019-05-12T04:35:04.813Z,1014.85
2019-05-12T04:36:05.635Z,1014.83
2019-05-12T04:37:04.571Z,1014.87
2019-05-12T04:38:04.477Z,1014.83
2019-05-12T04:39:04.349Z,1014.91
2019-05-12T04:40:05.398Z,1014.89
2019-05-12T04:41:05.878Z,1014.97
2019-05-12T04:42:05.277Z,1015.01
2019-05-12T04:43:05.822Z,1015.02
2019-05-12T04:44:05.811Z,1015.01
2019-05-12T04:45:04.597Z,1015.02
2019-05-12T04:46:05.069Z,1015.05
2019-05-12T04:47:05.562Z,1015.07
2019-05-12T04:48:05.231Z,1015.07
2019-05-12T04:49:05.223Z,1015.09
2019-05-12T04:50:05.445Z,1015.12
2019-05-12T04:51:05.011Z,1015.08
2019-05-12T04:52:05.303Z,1015.13
2019-05-12T04:53:05.971Z,1015.11
2019-05-12T04:54:05.881Z,1015.10
2019-05-12T04:55:04.713Z,1015.11
2019-05-12T04:56:10.942Z,1015.10
2019-05-12T04:57:04.272Z,1015.11
2019-05-12T04:58:04.439Z,1015.13
2019-05-12T04:59:05.073Z,1015.14
2019-05-12T05:00:05.095Z,1015.22
2019-05-12T05:01:06.415Z,1015.22
2019-05-12T05:02:05.420Z,1015.24
2019-05-12T05:03:05.110Z,1015.26
2019-05-12T05:04:05.351Z,1015.27
2019-05-12T05:05:05.420Z,1015.33
2019-05-12T05:06:04.476Z,1015.33
2019-05-12T05:07:04.451Z,1015.35
2019-05-12T05:08:04.305Z,1015.34
2019-05-12T05:09:05.089Z,1015.32
2019-05-12T05:10:04.646Z,1015.34
2019-05-12T05:11:04.172Z,1015.33
2019-05-12T05:12:04.634Z,1015.38
2019-05-12T05:13:05.388Z,1015.39
2019-05-12T05:14:04.369Z,1015.43
2019-05-12T05:15:05.433Z,1015.45
2019-05-12T05:16:05.468Z,1015.47
2019-05-12T05:17:05.523Z,1015.47
2019-05-12T05:18:06.199Z,1015.48
2019-05-12T05:19:03.715Z,1015.51
2019-05-12T05:20:04.098Z,1015.49
2019-05-12T05:21:04.727Z,1015.47
2019-05-12T05:22:04.357Z,1015.50
2019-05-12T05:23:03.705Z,1015.52
2019-05-12T05:24:03.917Z,1015.50
2019-05-12T05:25:04.265Z,1015.53
2019-05-12T05:26:03.448Z,1015.52
2019-05-12T05:27:04.453Z,1015.57
2019-05-12T05:28:03.946Z,1015.59
2019-05-12T05:29:04.343Z,1015.57
2019-05-12T05:30:04.155Z,1015.62
2019-05-12T05:31:03.660Z,1015.59
2019-05-12T05:32:03.578Z,1015.61
2019-05-12T05:33:04.538Z,1015.69
2019-05-12T05:34:04.788Z,1015.66
2019-05-12T05:35:04.619Z,1015.69
2019-05-12T05:36:03.564Z,1015.72
2019-05-12T05:37:05.215Z,1015.73
2019-05-12T05:38:04.517Z,1015.77
2019-05-12T05:39:04.328Z,1015.80
2019-05-12T05:40:03.914Z,1015.81
2019-05-12T05:41:06.088Z,1015.78
2019-05-12T05:42:04.583Z,1015.82
2019-05-12T05:43:12.153Z,1015.76
2019-05-12T05:44:03.324Z,1015.78
2019-05-12T05:45:04.847Z,1015.78
2019-05-12T05:46:07.782Z,1015.77
2019-05-12T05:47:04.379Z,1015.78
2019-05-12T05:48:07.442Z,1015.82
2019-05-12T05:49:04.209Z,1015.81
2019-05-12T05:50:04.755Z,1015.86
2019-05-12T05:51:07.472Z,1015.85
2019-05-12T05:52:03.642Z,1015.90
2019-05-12T05:53:03.976Z,1015.91
2019-05-12T05:54:04.017Z,1015.93
2019-05-12T05:55:05.895Z,1015.90
2019-05-12T05:56:04.087Z,1015.95
2019-05-12T05:57:06.080Z,1015.96
2019-05-12T05:58:05.739Z,1015.95
2019-05-12T05:59:04.488Z,1015.93
2019-05-12T06:00:07.335Z,1015.98
2019-05-12T06:01:07.748Z,1015.91
2019-05-12T06:02:04.909Z,1016.00
2019-05-12T06:03:05.234Z,1016.01
2019-05-12T06:04:04.396Z,1016.01
2019-05-12T06:05:04.418Z,1016.04
2019-05-12T06:06:10.435Z,1016.03
2019-05-12T06:07:04.152Z,1016.07
2019-05-12T06:08:04.176Z,1016.06
2019-05-12T06:09:03.767Z,1016.04
2019-05-12T06:10:04.121Z,1016.08
2019-05-12T06:11:04.851Z,1016.04
2019-05-12T06:12:05.242Z,1016.06
2019-05-12T06:13:04.146Z,1016.10
2019-05-12T06:14:11.105Z,1016.09
2019-05-12T06:15:04.192Z,1016.13
2019-05-12T06:16:04.426Z,1016.10
2019-05-12T06:17:04.288Z,1016.12
2019-05-12T06:18:03.667Z,1016.08
2019-05-12T06:19:03.459Z,1016.10
2019-05-12T06:20:04.462Z,1016.13
2019-05-12T06:21:03.572Z,1016.16
2019-05-12T06:22:03.979Z,1016.16
2019-05-12T06:23:04.306Z,1016.19
2019-05-12T06:24:03.668Z,1016.23
2019-05-12T06:25:04.855Z,1016.24
2019-05-12T06:26:04.436Z,1016.28
2019-05-12T06:27:14.347Z,1016.27
2019-05-12T06:28:04.617Z,1016.27
2019-05-12T06:29:04.492Z,1016.29
2019-05-12T06:30:06.122Z,1016.34
2019-05-12T06:31:04.267Z,1016.34
2019-05-12T06:32:06.237Z,1016.34
2019-05-12T06:33:04.204Z,1016.31
2019-05-12T06:34:05.950Z,1016.33
2019-05-12T06:35:04.537Z,1016.37
2019-05-12T06:36:05.516Z,1016.41
2019-05-12T06:37:11.632Z,1016.41
2019-05-12T06:38:04.982Z,1016.44
2019-05-12T06:39:04.346Z,1016.47
2019-05-12T06:40:03.577Z,1016.52
2019-05-12T06:41:03.639Z,1016.54
2019-05-12T06:42:12.749Z,1016.52
2019-05-12T06:43:04.387Z,1016.50
2019-05-12T06:44:03.743Z,1016.55
2019-05-12T06:45:03.689Z,1016.57
2019-05-12T06:46:03.629Z,1016.58
2019-05-12T06:47:08.078Z,1016.56
2019-05-12T06:48:03.435Z,1016.57
2019-05-12T06:49:10.179Z,1016.56
2019-05-12T06:50:03.970Z,1016.52
2019-05-12T06:51:04.027Z,1016.55
2019-05-12T06:52:06.907Z,1016.61
2019-05-12T06:53:05.163Z,1016.58
2019-05-12T06:54:07.394Z,1016.60
2019-05-12T06:55:04.068Z,1016.60
2019-05-12T06:56:04.537Z,1016.60
2019-05-12T06:57:18.639Z,1016.67
2019-05-12T06:58:04.671Z,1016.70
2019-05-12T06:59:09.991Z,1016.64
2019-05-12T07:00:04.503Z,1016.67
2019-05-12T07:01:10.161Z,1016.66
2019-05-12T07:02:03.409Z,1016.66
2019-05-12T07:03:03.951Z,1016.68
2019-05-12T07:04:06.803Z,1016.67
2019-05-12T07:05:04.359Z,1016.73
2019-05-12T07:06:04.059Z,1016.76
2019-05-12T07:07:03.582Z,1016.75
2019-05-12T07:08:04.179Z,1016.77
2019-05-12T07:09:09.202Z,1016.82
2019-05-12T07:10:11.617Z,1016.84
2019-05-12T07:11:05.915Z,1016.84
2019-05-12T07:12:06.966Z,1016.88
2019-05-12T07:13:05.503Z,1016.87
2019-05-12T07:14:07.793Z,1016.87
2019-05-12T07:15:03.768Z,1016.96
2019-05-12T07:16:03.753Z,1016.99
2019-05-12T07:17:05.589Z,1016.98
2019-05-12T07:18:04.297Z,1017.02
2019-05-12T07:19:07.680Z,1017.05
2019-05-12T07:20:03.961Z,1017.03
2019-05-12T07:21:04.123Z,1017.06
2019-05-12T07:22:03.602Z,1017.07
2019-05-12T07:23:03.986Z,1017.06
2019-05-12T07:24:06.752Z,1017.02
2019-05-12T07:25:04.538Z,1017.08
2019-05-12T07:26:06.749Z,1017.09
2019-05-12T07:27:08.767Z,1017.13
2019-05-12T07:28:06.853Z,1017.11
2019-05-12T07:29:04.430Z,1017.08
2019-05-12T07:30:04.677Z,1017.13
2019-05-12T07:31:03.923Z,1017.19
2019-05-12T07:32:07.087Z,1017.15
2019-05-12T07:33:04.537Z,1017.21
2019-05-12T07:34:05.310Z,1017.24
2019-05-12T07:35:03.935Z,1017.25
2019-05-12T07:36:06.380Z,1017.24
2019-05-12T07:37:04.360Z,1017.23
2019-05-12T07:38:04.542Z,1017.24
2019-05-12T07:39:04.505Z,1017.22
2019-05-12T07:40:04.834Z,1017.27
2019-05-12T07:41:06.797Z,1017.29
2019-05-12T07:42:03.622Z,1017.29
2019-05-12T07:43:04.004Z,1017.40
2019-05-12T07:44:03.597Z,1017.38
2019-05-12T07:45:03.987Z,1017.32
2019-05-12T07:46:06.894Z,1017.33
2019-05-12T07:47:03.610Z,1017.35
2019-05-12T07:48:07.723Z,1017.40
2019-05-12T07:49:03.894Z,1017.37
2019-05-12T07:50:04.502Z,1017.36
2019-05-12T07:51:04.162Z,1017.40
2019-05-12T07:52:03.635Z,1017.43
2019-05-12T07:53:04.078Z,1017.44
2019-05-12T07:54:04.065Z,1017.39
2019-05-12T07:55:04.272Z,1017.44
2019-05-12T07:56:04.174Z,1017.43
2019-05-12T07:57:11.229Z,1017.44
2019-05-12T07:58:10.257Z,1017.44
2019-05-12T07:59:04.385Z,1017.49
2019-05-12T08:00:03.643Z,1017.51
2019-05-12T08:01:05.108Z,1017.53
2019-05-12T08:02:03.878Z,1017.57
2019-05-12T08:03:08.015Z,1017.66
2019-05-12T08:04:04.373Z,1017.61
2019-05-12T08:05:03.808Z,1017.63
2019-05-12T08:06:04.609Z,1017.67
2019-05-12T08:07:03.868Z,1017.71
2019-05-12T08:08:06.984Z,1017.70
2019-05-12T08:09:04.153Z,1017.69
2019-05-12T08:10:07.309Z,1017.69
2019-05-12T08:11:04.471Z,1017.68
2019-05-12T08:12:04.026Z,1017.67
2019-05-12T08:13:04.476Z,1017.67
2019-05-12T08:14:03.637Z,1017.71
2019-05-12T08:15:07.734Z,1017.71
2019-05-12T08:16:03.726Z,1017.71
2019-05-12T08:17:11.176Z,1017.70
2019-05-12T08:18:07.418Z,1017.73
2019-05-12T08:19:03.993Z,1017.75
2019-05-12T08:20:04.400Z,1017.78
2019-05-12T08:21:03.775Z,1017.82
2019-05-12T08:22:04.301Z,1017.81
2019-05-12T08:23:05.856Z,1017.84
2019-05-12T08:24:03.820Z,1017.83
2019-05-12T08:25:04.172Z,1017.87
2019-05-12T08:26:03.604Z,1017.83
2019-05-12T08:27:06.286Z,1017.83
2019-05-12T08:28:14.132Z,1017.85
2019-05-12T08:29:04.261Z,1017.88
2019-05-12T08:30:05.907Z,1017.90
2019-05-12T08:31:03.575Z,1017.91
2019-05-12T08:32:03.755Z,1017.94
2019-05-12T08:33:08.981Z,1017.92
2019-05-12T08:34:04.205Z,1017.90
2019-05-12T08:35:04.896Z,1017.92
2019-05-12T08:36:10.813Z,1017.98
2019-05-12T08:37:04.305Z,1017.94
2019-05-12T08:38:03.939Z,1017.92
2019-05-12T08:39:05.924Z,1017.99
2019-05-12T08:40:04.287Z,1017.94
2019-05-12T08:41:04.310Z,1017.99
2019-05-12T08:42:04.050Z,1018.02
2019-05-12T08:43:08.052Z,1018.04
2019-05-12T08:44:04.448Z,1018.07
2019-05-12T08:45:04.129Z,1018.04
2019-05-12T08:46:09.885Z,1018.03
2019-05-12T08:47:03.937Z,1018.07
2019-05-12T08:48:03.872Z,1018.07
2019-05-12T08:49:03.038Z,1018.04
2019-05-12T08:50:04.803Z,1018.08
2019-05-12T08:51:05.244Z,1018.09
2019-05-12T08:52:03.817Z,1018.12
2019-05-12T08:53:04.458Z,1018.12
2019-05-12T08:54:05.439Z,1018.04
2019-05-12T08:55:04.269Z,1018.11
2019-05-12T08:56:06.590Z,1018.11
2019-05-12T08:57:03.879Z,1018.14
2019-05-12T08:58:03.756Z,1018.13
2019-05-12T08:59:04.242Z,1018.15
2019-05-12T09:00:06.701Z,1018.13
2019-05-12T09:01:04.412Z,1018.18
2019-05-12T09:02:07.329Z,1018.24
2019-05-12T09:03:03.602Z,1018.20
2019-05-12T09:04:06.612Z,1018.25
2019-05-12T09:05:04.630Z,1018.22
2019-05-12T09:06:04.097Z,1018.23
2019-05-12T09:07:04.323Z,1018.27
2019-05-12T09:08:03.742Z,1018.25
2019-05-12T09:09:03.482Z,1018.24
2019-05-12T09:10:04.088Z,1018.28
2019-05-12T09:11:03.578Z,1018.26
2019-05-12T09:12:03.581Z,1018.33
2019-05-12T09:13:04.004Z,1018.43
2019-05-12T09:14:03.557Z,1018.37
2019-05-12T09:15:04.273Z,1018.34
2019-05-12T09:16:04.202Z,1018.37
2019-05-12T09:17:06.628Z,1018.38
2019-05-12T09:18:04.389Z,1018.42
2019-05-12T09:19:04.658Z,1018.42
2019-05-12T09:20:06.933Z,1018.46
2019-05-12T09:21:03.840Z,1018.46
2019-05-12T09:22:04.874Z,1018.46
2019-05-12T09:23:04.719Z,1018.44
2019-05-12T09:24:04.094Z,1018.49
2019-05-12T09:25:06.178Z,1018.45
2019-05-12T09:26:03.768Z,1018.43
2019-05-12T09:27:07.011Z,1018.46
2019-05-12T09:28:03.796Z,1018.45
2019-05-12T09:29:03.422Z,1018.45
2019-05-12T09:30:08.085Z,1018.48
2019-05-12T09:31:03.729Z,1018.45
2019-05-12T09:32:05.357Z,1018.50
2019-05-12T09:33:04.120Z,1018.44
2019-05-12T09:34:05.493Z,1018.44
2019-05-12T09:35:03.925Z,1018.48
2019-05-12T09:36:04.174Z,1018.50
2019-05-12T09:37:04.065Z,1018.46
2019-05-12T09:38:03.663Z,1018.46
2019-05-12T09:39:03.810Z,1018.46
2019-05-12T09:40:04.362Z,1018.47
2019-05-12T09:41:03.267Z,1018.52
2019-05-12T09:42:03.812Z,1018.47
2019-05-12T09:43:07.737Z,1018.41
2019-05-12T09:44:04.407Z,1018.49
2019-05-12T09:45:08.744Z,1018.51
2019-05-12T09:46:04.214Z,1018.52
2019-05-12T09:47:03.914Z,1018.47
2019-05-12T09:48:04.934Z,1018.55
2019-05-12T09:49:03.999Z,1018.50
2019-05-12T09:50:04.194Z,1018.40
2019-05-12T09:51:04.662Z,1018.56
2019-05-12T09:52:03.731Z,1018.54
2019-05-12T09:53:09.261Z,1018.62
2019-05-12T09:54:01.962Z,1018.62
2019-05-12T09:55:04.086Z,1018.58
2019-05-12T09:56:04.304Z,1018.66
2019-05-12T09:57:04.262Z,1018.64
2019-05-12T09:58:03.918Z,1018.64
2019-05-12T09:59:10.975Z,1018.69
2019-05-12T10:00:04.238Z,1018.67
2019-05-12T10:01:03.616Z,1018.63
2019-05-12T10:02:03.758Z,1018.66
2019-05-12T10:03:04.337Z,1018.71
2019-05-12T10:04:03.447Z,1018.72
2019-05-12T10:05:03.889Z,1018.71
2019-05-12T10:06:03.672Z,1018.76
2019-05-12T10:07:03.813Z,1018.78
2019-05-12T10:08:04.289Z,1018.78
2019-05-12T10:09:03.434Z,1018.74
2019-05-12T10:10:03.668Z,1018.78
2019-05-12T10:11:03.753Z,1018.80
2019-05-12T10:12:03.272Z,1018.80
2019-05-12T10:13:04.293Z,1018.80
2019-05-12T10:14:08.607Z,1018.83
2019-05-12T10:15:04.101Z,1018.86
2019-05-12T10:16:04.870Z,1018.84
2019-05-12T10:17:03.626Z,1018.87
2019-05-12T10:18:06.475Z,1018.80
2019-05-12T10:19:03.949Z,1018.82
2019-05-12T10:20:01.860Z,1018.82
2019-05-12T10:21:01.858Z,1018.78
2019-05-12T10:22:01.871Z,1018.85
2019-05-12T10:23:04.044Z,1018.77
2019-05-12T10:24:04.519Z,1018.83
2019-05-12T10:25:03.893Z,1018.87
2019-05-12T10:26:09.974Z,1018.99
2019-05-12T10:27:03.832Z,1018.91
2019-05-12T10:28:03.021Z,1018.92
2019-05-12T10:29:14.259Z,1018.90
2019-05-12T10:30:03.276Z,1018.96
2019-05-12T10:31:04.011Z,1018.98
2019-05-12T10:32:03.814Z,1019.04
2019-05-12T10:33:03.814Z,1018.95
2019-05-12T10:34:03.375Z,1019.09
2019-05-12T10:35:01.813Z,1018.98
2019-05-12T10:36:06.872Z,1018.96
2019-05-12T10:37:03.767Z,1018.91
2019-05-12T10:38:06.193Z,1018.99
2019-05-12T10:39:01.777Z,1019.01
2019-05-12T10:40:03.677Z,1019.04
2019-05-12T10:41:03.797Z,1019.04
2019-05-12T10:42:01.791Z,1018.99
2019-05-12T10:43:04.151Z,1018.99
2019-05-12T10:44:03.735Z,1018.96
2019-05-12T10:45:04.189Z,1018.95
2019-05-12T10:46:04.043Z,1018.92
2019-05-12T10:47:04.235Z,1018.93
2019-05-12T10:48:03.625Z,1018.94
2019-05-12T10:49:03.835Z,1018.95
2019-05-12T10:50:01.736Z,1018.98
2019-05-12T10:51:01.762Z,1018.96
2019-05-12T10:52:03.724Z,1019.05
2019-05-12T10:53:04.219Z,1019.03
2019-05-12T10:54:10.006Z,1019.05
2019-05-12T10:55:01.736Z,1019.06
2019-05-12T10:56:01.718Z,1019.01
2019-05-12T10:57:01.710Z,1019.00
2019-05-12T10:58:06.324Z,1018.98
2019-05-12T10:59:04.125Z,1019.03
2019-05-12T11:00:03.975Z,1019.01
2019-05-12T11:01:05.215Z,1019.02
2019-05-12T11:02:03.490Z,1019.02
2019-05-12T11:03:09.599Z,1019.06
2019-05-12T11:04:03.850Z,1019.08
2019-05-12T11:05:01.685Z,1019.08
2019-05-12T11:06:03.182Z,1019.08
2019-05-12T11:07:01.669Z,1019.08
2019-05-12T11:08:08.568Z,1019.06
2019-05-12T11:09:03.731Z,1019.06
2019-05-12T11:10:05.111Z,1019.04
2019-05-12T11:11:04.030Z,1019.02
2019-05-12T11:12:03.399Z,1019.06
2019-05-12T11:13:06.785Z,1019.10
2019-05-12T11:14:03.822Z,1019.02
2019-05-12T11:15:06.655Z,1019.07
2019-05-12T11:16:03.661Z,1019.04
2019-05-12T11:17:02.013Z,1019.05
2019-05-12T11:18:01.629Z,1019.07
2019-05-12T11:19:06.385Z,1019.01
2019-05-12T11:20:03.980Z,1019.01
2019-05-12T11:21:03.647Z,1019.02
2019-05-12T11:22:03.680Z,1019.05
2019-05-12T11:23:03.493Z,1019.11
2019-05-12T11:24:03.723Z,1019.07
2019-05-12T11:25:04.082Z,1019.11
2019-05-12T11:26:03.724Z,1019.13
2019-05-12T11:27:03.917Z,1019.10
2019-05-12T11:28:03.784Z,1019.08
2019-05-12T11:29:03.679Z,1019.05
2019-05-12T11:30:04.069Z,1019.06
2019-05-12T11:31:01.600Z,1019.03
2019-05-12T11:32:01.604Z,1019.00
2019-05-12T11:33:04.036Z,1019.05
2019-05-12T11:34:01.642Z,1019.05
2019-05-12T11:35:03.961Z,1019.05
2019-05-12T11:36:01.567Z,1019.03
2019-05-12T11:37:03.445Z,1019.03
2019-05-12T11:38:04.110Z,1019.06
2019-05-12T11:39:03.604Z,1019.14
2019-05-12T11:40:04.187Z,1019.14
2019-05-12T11:41:01.551Z,1019.18
2019-05-12T11:42:01.577Z,1019.16
2019-05-12T11:43:04.118Z,1019.14
2019-05-12T11:44:03.840Z,1019.14
2019-05-12T11:45:01.534Z,1019.15
2019-05-12T11:46:01.536Z,1019.13
2019-05-12T11:47:03.684Z,1019.11
2019-05-12T11:48:05.955Z,1019.13
2019-05-12T11:49:01.527Z,1019.15
2019-05-12T11:50:05.254Z,1019.22
2019-05-12T11:51:03.744Z,1019.18
2019-05-12T11:52:07.352Z,1019.23
2019-05-12T11:53:03.923Z,1019.28
2019-05-12T11:54:03.428Z,1019.31
2019-05-12T11:55:01.497Z,1019.28
2019-05-12T11:56:02.355Z,1019.28
2019-05-12T11:57:01.492Z,1019.27
2019-05-12T11:58:09.136Z,1019.22
2019-05-12T11:59:01.485Z,1019.22
2019-05-12T12:00:02.155Z,1019.23
2019-05-12T12:01:04.738Z,1019.29
2019-05-12T12:02:01.476Z,1019.25
2019-05-12T12:03:03.881Z,1019.22
2019-05-12T12:04:03.614Z,1019.23
2019-05-12T12:05:01.461Z,1019.23
2019-05-12T12:06:01.466Z,1019.23
2019-05-12T12:07:01.463Z,1019.25
2019-05-12T12:08:03.714Z,1019.29
2019-05-12T12:09:01.449Z,1019.34
2019-05-12T12:10:03.591Z,1019.34
2019-05-12T12:11:02.022Z,1019.37
2019-05-12T12:12:05.595Z,1019.38
2019-05-12T12:13:03.509Z,1019.35
2019-05-12T12:14:06.353Z,1019.43
2019-05-12T12:15:01.433Z,1019.36
2019-05-12T12:16:06.824Z,1019.35
2019-05-12T12:17:01.421Z,1019.34
2019-05-12T12:18:03.977Z,1019.36
2019-05-12T12:19:05.061Z,1019.32
2019-05-12T12:20:03.588Z,1019.38